Time;durP1;ratioP1;P1;durP2;ratioP2;P2;SDS_P1;SDS_P2;PMS_P1;PMS_P2;Temp;Humidity;BMP_temperature;BMP_pressure;BME280_temperature;BME280_humidity;BME280_pressure;Samples;Min_cycle;Max_cycle;Signal;HPM_P1;HPM_P2
2022/07/17 00:02:12;;;;;;;5.05;2.35;;;;;;;14.24;79.83;99772.78;5090021;28;20047;-77
2022/07/17 00:04:39;;;;;;;4.05;2.63;;;;;;;14.11;81.36;99792.59;5095638;28;20044;-77
2022/07/17 00:07:06;;;;;;;2.90;2.47;;;;;;;14.08;81.94;99789.44;5095422;28;20040;-77
2022/07/17 00:09:32;;;;;;;4.10;2.67;;;;;;;14.07;81.75;99776.78;5095894;28;20145;-77
2022/07/17 00:12:00;;;;;;;4.28;2.35;;;;;;;14.16;82.52;99800.22;5093384;28;20558;-77
2022/07/17 00:14:27;;;;;;;4.75;2.40;;;;;;;13.82;83.12;99785.34;5090840;28;20127;-77
2022/07/17 00:16:54;;;;;;;3.30;2.33;;;;;;;13.65;83.75;99765.53;5088417;28;20055;-77
2022/07/17 00:19:21;;;;;;;4.47;2.33;;;;;;;13.99;81.69;99799.63;5097290;28;20329;-77
2022/07/17 00:21:48;;;;;;;2.83;2.38;;;;;;;13.89;82.12;99777.19;5088276;28;20044;-77
2022/07/17 00:24:19;;;;;;;5.05;2.80;;;;;;;13.90;82.48;99789.84;5086712;28;20387;-77
2022/07/17 00:26:46;;;;;;;4.60;2.78;;;;;;;13.86;82.66;99783.06;5089329;28;20538;-77
2022/07/17 00:29:15;;;;;;;4.32;2.40;;;;;;;13.82;84.13;99799.00;5094521;28;20233;-77
2022/07/17 00:31:42;;;;;;;4.00;2.50;;;;;;;13.81;83.87;99795.41;5093865;28;20076;-77
2022/07/17 00:34:08;;;;;;;6.78;3.00;;;;;;;13.62;84.97;99785.06;5089425;28;20049;-77
2022/07/17 00:36:35;;;;;;;4.25;2.70;;;;;;;13.96;83.33;99800.84;5092314;28;20131;-77
2022/07/17 00:39:01;;;;;;;3.70;2.67;;;;;;;13.79;84.06;99810.31;5090853;28;20056;-77
2022/07/17 00:41:28;;;;;;;7.28;2.60;;;;;;;13.50;85.39;99806.53;5100621;28;20462;-77
2022/07/17 00:43:54;;;;;;;2.65;2.38;;;;;;;13.75;85.47;99807.09;5089880;28;20138;-77
2022/07/17 00:46:23;;;;;;;6.28;3.15;;;;;;;13.63;84.98;99809.44;5095531;28;20047;-77
2022/07/17 00:48:49;;;;;;;6.25;2.78;;;;;;;13.54;85.58;99813.31;5093324;28;20043;-77
2022/07/17 00:51:16;;;;;;;3.55;2.90;;;;;;;13.57;85.04;99806.63;5089565;28;20051;-77
2022/07/17 00:53:43;;;;;;;5.18;2.63;;;;;;;13.47;85.59;99787.78;5090513;28;20044;-78
2022/07/17 00:56:11;;;;;;;4.78;3.10;;;;;;;13.12;88.05;99789.34;5094383;28;20052;-77
2022/07/17 00:58:40;;;;;;;6.22;2.60;;;;;;;13.22;88.45;99793.50;5092703;28;20128;-78
2022/07/17 01:01:07;;;;;;;3.90;2.88;;;;;;;12.82;89.69;99779.22;5088286;28;20465;-77
2022/07/17 01:03:35;;;;;;;4.05;3.13;;;;;;;12.75;90.38;99773.66;5093201;28;20048;-77
2022/07/17 01:06:01;;;;;;;4.10;2.80;;;;;;;12.91;89.23;99777.25;5096369;28;20059;-77
2022/07/17 01:08:28;;;;;;;3.95;2.97;;;;;;;13.14;88.22;99799.03;5091590;28;20424;-77
2022/07/17 01:10:55;;;;;;;5.22;2.80;;;;;;;13.26;87.61;99807.63;5085091;28;20056;-77
2022/07/17 01:13:22;;;;;;;3.33;2.75;;;;;;;12.93;89.85;99795.16;5093378;28;20474;-77
2022/07/17 01:15:48;;;;;;;5.35;3.30;;;;;;;12.85;90.00;99802.56;5086345;28;20048;-77
2022/07/17 01:18:15;;;;;;;3.85;3.05;;;;;;;12.65;91.32;99800.34;5091777;28;20043;-77
2022/07/17 01:20:45;;;;;;;5.40;3.30;;;;;;;12.68;91.29;99802.69;5090430;28;20047;-77
2022/07/17 01:23:14;;;;;;;5.68;3.03;;;;;;;12.67;92.74;99814.63;5099586;28;20054;-77
2022/07/17 01:25:41;;;;;;;5.72;3.08;;;;;;;12.71;92.34;99810.50;5098952;28;20089;-77
2022/07/17 01:28:08;;;;;;;4.93;3.17;;;;;;;12.46;93.07;99789.91;5096467;28;20044;-77
2022/07/17 01:30:35;;;;;;;5.78;3.42;;;;;;;12.69;92.38;99826.22;5089787;28;20055;-77
2022/07/17 01:33:03;;;;;;;4.43;2.85;;;;;;;12.54;92.76;99818.00;5099573;28;20475;-77
2022/07/17 01:35:29;;;;;;;5.63;2.78;;;;;;;12.55;90.51;99800.56;5082662;28;20509;-78
2022/07/17 01:37:56;;;;;;;7.95;2.83;;;;;;;12.64;90.96;99825.91;5089640;28;20059;-77
2022/07/17 01:40:24;;;;;;;5.43;2.97;;;;;;;12.63;91.27;99801.53;5086420;28;20048;-77
2022/07/17 01:42:51;;;;;;;3.30;2.45;;;;;;;12.83;90.99;99818.28;5096549;28;20127;-77
2022/07/17 01:45:20;;;;;;;3.25;2.55;;;;;;;12.79;91.32;99809.59;5091755;28;20090;-77
2022/07/17 01:47:46;;;;;;;7.80;2.75;;;;;;;12.72;91.12;99801.31;5102772;28;20050;-77
2022/07/17 01:50:14;;;;;;;2.58;2.30;;;;;;;12.72;91.10;99798.59;5096313;28;20156;-77
2022/07/17 01:52:44;;;;;;;2.95;2.40;;;;;;;12.70;91.20;99805.25;5099112;28;20406;-77
2022/07/17 01:55:12;;;;;;;3.53;2.83;;;;;;;12.73;91.30;99808.44;5093968;28;20052;-77
2022/07/17 01:57:41;;;;;;;4.57;3.08;;;;;;;12.72;90.98;99814.94;5097543;28;20067;-77
2022/07/17 02:00:11;;;;;;;5.32;2.47;;;;;;;12.59;90.91;99792.88;5093896;28;20048;-77
2022/07/17 02:02:38;;;;;;;5.07;2.97;;;;;;;12.39;92.24;99784.34;5100422;28;20063;-77
2022/07/17 02:05:05;;;;;;;5.95;2.78;;;;;;;12.35;91.79;99792.03;5097021;28;20487;-77
2022/07/17 02:07:33;;;;;;;7.78;3.38;;;;;;;12.42;92.24;99805.81;5096417;28;20048;-77
2022/07/17 02:10:00;;;;;;;4.47;3.20;;;;;;;12.51;91.41;99790.22;5093847;28;20055;-77
2022/07/17 02:12:26;;;;;;;5.50;3.13;;;;;;;12.44;91.48;99764.72;5097391;28;20048;-77
2022/07/17 02:14:54;;;;;;;4.47;2.63;;;;;;;12.35;92.19;99783.84;5088637;28;20044;-77
2022/07/17 02:17:21;;;;;;;3.97;2.80;;;;;;;12.41;91.71;99784.19;5093416;28;20046;-77
2022/07/17 02:19:47;;;;;;;4.60;3.25;;;;;;;12.46;91.57;99782.56;5094007;28;20040;-77
2022/07/17 02:22:14;;;;;;;3.55;2.80;;;;;;;12.53;91.91;99796.34;5098570;28;20043;-77
2022/07/17 02:24:40;;;;;;;5.43;3.00;;;;;;;12.58;91.56;99793.91;5093634;28;20510;-77
2022/07/17 02:27:07;;;;;;;5.18;3.28;;;;;;;12.42;92.07;99791.31;5092683;28;20130;-77
2022/07/17 02:29:33;;;;;;;4.20;2.90;;;;;;;12.16;92.92;99778.88;5093076;28;20044;-77
2022/07/17 02:32:01;;;;;;;3.10;2.60;;;;;;;12.07;95.31;99802.59;5098436;28;20048;-77
2022/07/17 02:34:28;;;;;;;5.28;3.00;;;;;;;12.06;94.86;99800.06;5098388;28;20079;-77
2022/07/17 02:36:54;;;;;;;8.73;3.15;;;;;;;12.00;95.00;99777.94;5097559;28;20052;-77
2022/07/17 02:39:21;;;;;;;4.03;2.83;;;;;;;12.16;94.18;99798.81;5093464;28;20044;-77
2022/07/17 02:41:47;;;;;;;5.72;3.03;;;;;;;12.04;93.78;99772.97;5094698;28;20047;-78
2022/07/17 02:44:14;;;;;;;6.05;3.03;;;;;;;12.01;93.63;99785.13;5098197;28;20068;-77
2022/07/17 02:46:40;;;;;;;3.78;2.80;;;;;;;11.90;94.49;99787.34;5092011;28;20048;-77
2022/07/17 02:49:08;;;;;;;3.28;2.60;;;;;;;11.59;95.85;99767.25;5091849;28;20048;-77
2022/07/17 02:51:35;;;;;;;5.70;3.00;;;;;;;11.63;95.40;99782.19;5106881;28;20044;-77
2022/07/17 02:54:01;;;;;;;3.40;2.83;;;;;;;11.74;94.45;99782.81;5097310;28;20406;-77
2022/07/17 02:56:28;;;;;;;3.83;3.00;;;;;;;11.59;95.05;99759.06;5084304;28;20146;-77
2022/07/17 02:58:54;;;;;;;4.22;3.03;;;;;;;11.48;96.58;99782.06;5094025;28;20043;-77
2022/07/17 03:01:21;;;;;;;6.00;2.55;;;;;;;11.50;96.69;99784.63;5092462;28;20400;-77
2022/07/17 03:03:47;;;;;;;3.15;2.72;;;;;;;11.53;96.28;99784.25;5097953;28;20054;-77
2022/07/17 03:06:15;;;;;;;6.88;2.90;;;;;;;11.65;95.89;99793.78;5100272;28;20052;-77
2022/07/17 03:08:42;;;;;;;4.53;2.92;;;;;;;11.47;97.25;99784.97;5092515;28;20126;-77
2022/07/17 03:11:08;;;;;;;11.55;3.30;;;;;;;11.43;96.59;99768.16;5102486;28;20047;-77
2022/07/17 03:13:35;;;;;;;4.70;2.75;;;;;;;11.35;96.92;99789.97;5095167;28;20060;-77
2022/07/17 03:16:01;;;;;;;3.38;2.58;;;;;;;11.26;98.47;99791.84;5101915;28;20131;-77
2022/07/17 03:18:28;;;;;;;4.43;2.72;;;;;;;11.12;98.12;99768.91;5091793;28;20101;-77
2022/07/17 03:20:54;;;;;;;3.33;2.47;;;;;;;11.37;97.92;99790.63;5095831;28;20447;-77
2022/07/17 03:23:22;;;;;;;3.78;2.88;;;;;;;11.36;98.16;99786.19;5092617;28;20050;-77
2022/07/17 03:25:49;;;;;;;3.92;3.08;;;;;;;11.47;96.99;99795.84;5108760;28;20039;-77
2022/07/17 03:28:15;;;;;;;3.55;2.85;;;;;;;11.28;97.47;99781.63;5093281;28;20040;-77
2022/07/17 03:30:42;;;;;;;6.93;3.33;;;;;;;11.30;98.16;99804.06;5097494;28;20051;-77
2022/07/17 03:33:09;;;;;;;5.78;3.47;;;;;;;11.18;98.10;99791.03;5090227;28;20050;-77
2022/07/17 03:35:35;;;;;;;5.57;3.10;;;;;;;11.33;98.53;99798.28;5097344;28;20422;-78
2022/07/17 03:38:02;;;;;;;4.10;3.00;;;;;;;11.31;98.01;99799.50;5091824;28;20065;-77
2022/07/17 03:40:30;;;;;;;4.72;3.00;;;;;;;11.16;99.64;99794.75;5091193;28;20367;-77
2022/07/17 03:42:57;;;;;;;4.95;2.70;;;;;;;11.09;100.00;99809.22;5092782;28;20184;-77
2022/07/17 03:45:23;;;;;;;3.35;2.65;;;;;;;10.92;100.00;99778.47;5095564;28;20050;-78
2022/07/17 03:47:50;;;;;;;4.75;3.30;;;;;;;11.11;99.10;99788.13;5093041;28;20487;-77
2022/07/17 03:50:16;;;;;;;7.88;2.88;;;;;;;11.11;100.00;99799.88;5098029;28;20051;-77
2022/07/17 03:52:43;;;;;;;5.53;3.08;;;;;;;11.08;99.39;99780.31;5090677;28;20130;-77
2022/07/17 03:55:10;;;;;;;3.80;3.00;;;;;;;11.03;99.90;99780.81;5096519;28;20126;-77
2022/07/17 03:57:38;;;;;;;5.40;3.00;;;;;;;11.09;99.72;99780.13;5095890;28;20051;-77
2022/07/17 04:00:05;;;;;;;3.25;2.58;;;;;;;11.03;99.88;99785.44;5095379;28;20051;-77
2022/07/17 04:02:32;;;;;;;4.93;2.83;;;;;;;11.00;97.99;99769.44;5090821;28;20059;-77
2022/07/17 04:04:58;;;;;;;10.00;2.90;;;;;;;11.19;98.23;99787.28;5092537;28;20044;-77
2022/07/17 04:07:28;;;;;;;5.18;3.33;;;;;;;11.13;97.83;99775.22;5100435;28;20116;-77
2022/07/17 04:09:55;;;;;;;3.78;2.60;;;;;;;11.16;98.28;99791.19;5096396;27;20059;-77
2022/07/17 04:12:22;;;;;;;3.55;3.00;;;;;;;11.30;97.74;99797.78;5091214;28;20055;-77
2022/07/17 04:14:51;;;;;;;5.53;3.08;;;;;;;11.16;98.49;99793.91;5090432;28;20047;-77
2022/07/17 04:17:17;;;;;;;5.38;2.97;;;;;;;11.28;100.00;99803.41;5091081;28;20501;-77
2022/07/17 04:19:44;;;;;;;3.00;2.67;;;;;;;11.16;99.57;99778.44;5091311;28;20050;-77
2022/07/17 04:22:11;;;;;;;5.68;2.78;;;;;;;11.44;99.08;99809.81;5092175;28;20051;-77
2022/07/17 04:24:37;;;;;;;7.82;3.17;;;;;;;11.44;99.71;99816.13;5091550;28;20055;-77
2022/07/17 04:27:04;;;;;;;4.07;3.08;;;;;;;11.30;99.33;99795.91;5084172;28;20135;-77
2022/07/17 04:29:30;;;;;;;4.05;2.72;;;;;;;11.40;100.00;99806.59;5100968;28;20122;-77
2022/07/17 04:31:58;;;;;;;8.35;2.85;;;;;;;11.16;100.00;99772.16;5094777;28;20051;-77
2022/07/17 04:34:25;;;;;;;4.07;3.25;;;;;;;11.31;100.00;99800.34;5090299;28;20050;-77
2022/07/17 04:36:52;;;;;;;7.43;3.28;;;;;;;11.37;100.00;99800.69;5090900;28;20481;-77
2022/07/17 04:39:19;;;;;;;5.30;2.90;;;;;;;11.47;100.00;99813.06;5096212;28;20517;-77
2022/07/17 04:41:45;;;;;;;6.00;2.95;;;;;;;11.54;100.00;99812.34;5093099;28;20431;-77
2022/07/17 04:44:12;;;;;;;3.67;2.97;;;;;;;11.63;100.00;99816.75;5090550;28;20048;-77
2022/07/17 04:46:39;;;;;;;5.65;3.72;;;;;;;11.58;100.00;99808.28;5090099;28;20047;-77
2022/07/17 04:49:06;;;;;;;5.38;3.10;;;;;;;11.76;100.00;99822.47;5090761;28;20134;-77
2022/07/17 04:51:33;;;;;;;3.20;2.88;;;;;;;11.72;100.00;99810.25;5086052;28;20044;-77
2022/07/17 04:54:00;;;;;;;3.25;2.90;;;;;;;11.92;99.55;99821.53;5096855;28;20093;-77
2022/07/17 04:56:26;;;;;;;4.38;3.20;;;;;;;11.70;100.00;99798.69;5089092;28;20062;-77
2022/07/17 04:58:53;;;;;;;4.40;3.05;;;;;;;11.84;100.00;99783.47;5091359;28;20064;-78
2022/07/17 05:01:20;;;;;;;4.60;2.90;;;;;;;11.90;99.72;99818.16;5094146;28;20048;-77
2022/07/17 05:03:46;;;;;;;5.22;3.25;;;;;;;11.97;100.00;99813.75;5094218;28;20044;-78
2022/07/17 05:06:14;;;;;;;7.85;3.03;;;;;;;11.92;99.27;99813.38;5092754;28;20507;-77
2022/07/17 05:08:41;;;;;;;6.93;3.58;;;;;;;12.22;97.73;99808.13;5093671;28;20040;-78
2022/07/17 05:11:07;;;;;;;3.90;3.08;;;;;;;13.08;90.06;99819.75;5099755;28;20040;-77
2022/07/17 05:13:35;;;;;;;3.40;2.63;;;;;;;13.94;83.12;99824.81;5095749;28;20047;-77
2022/07/17 05:16:02;;;;;;;4.68;2.53;;;;;;;14.78;79.63;99811.63;5095545;28;20057;-77
2022/07/17 05:18:28;;;;;;;5.10;3.25;;;;;;;15.35;74.26;99798.81;5085705;28;20051;-77
2022/07/17 05:20:55;;;;;;;3.53;2.78;;;;;;;16.03;71.23;99809.09;5094983;28;20483;-77
2022/07/17 05:23:23;;;;;;;3.25;2.88;;;;;;;16.41;68.29;99789.38;5095167;27;20052;-78
2022/07/17 05:25:49;;;;;;;4.05;2.53;;;;;;;16.85;65.93;99800.88;5096725;28;20059;-77
2022/07/17 05:28:16;;;;;;;4.03;2.10;;;;;;;17.12;62.94;99793.50;5096146;28;20459;-77
2022/07/17 05:30:42;;;;;;;5.53;2.15;;;;;;;17.63;62.28;99806.50;5095183;28;20144;-77
2022/07/17 05:33:09;;;;;;;3.88;2.20;;;;;;;17.81;61.05;99794.81;5093386;28;20052;-77
2022/07/17 05:35:35;;;;;;;2.80;2.30;;;;;;;17.68;59.99;99794.88;5094254;28;20052;-77
2022/07/17 05:38:02;;;;;;;2.28;1.70;;;;;;;17.63;60.26;99814.75;5097589;28;20059;-77
2022/07/17 05:40:30;;;;;;;2.72;1.92;;;;;;;17.79;59.35;99788.69;5094766;28;20048;-77
2022/07/17 05:42:58;;;;;;;6.50;2.00;;;;;;;18.32;58.56;99793.16;5093274;28;20130;-77
2022/07/17 05:45:24;;;;;;;4.78;2.33;;;;;;;18.02;57.88;99792.84;5094786;28;20040;-77
2022/07/17 05:47:51;;;;;;;3.38;2.17;;;;;;;18.10;56.80;99805.53;5092704;28;20426;-77
2022/07/17 05:50:17;;;;;;;2.38;1.90;;;;;;;18.52;55.72;99790.25;5097982;27;20051;-77
2022/07/17 05:52:44;;;;;;;4.15;1.98;;;;;;;18.69;55.72;99817.28;5099740;28;20040;-77
2022/07/17 05:55:11;;;;;;;3.13;2.08;;;;;;;18.76;54.74;99820.81;5096163;27;20056;-77
2022/07/17 05:57:39;;;;;;;3.40;2.20;;;;;;;18.65;54.12;99821.53;5100113;28;20067;-78
2022/07/17 06:00:07;;;;;;;2.78;2.15;;;;;;;19.37;52.96;99819.28;5092354;28;20044;-77
2022/07/17 06:02:34;;;;;;;3.25;1.88;;;;;;;19.18;52.03;99809.28;5092706;28;20507;-76
2022/07/17 06:05:00;;;;;;;3.13;2.03;;;;;;;19.39;51.85;99794.22;5093941;28;20495;-76
2022/07/17 06:07:27;;;;;;;2.45;2.00;;;;;;;19.58;52.46;99825.44;5102188;28;20048;-76
2022/07/17 06:09:53;;;;;;;4.22;2.13;;;;;;;19.62;51.59;99826.69;5093964;28;20051;-76
2022/07/17 06:12:20;;;;;;;2.30;1.85;;;;;;;20.15;49.97;99809.50;5099913;28;20577;-77
2022/07/17 06:14:48;;;;;;;2.85;1.73;;;;;;;19.88;50.89;99825.56;5093006;28;20043;-76
2022/07/17 06:17:14;;;;;;;2.42;1.73;;;;;;;20.56;49.93;99831.06;5095178;28;20047;-78
2022/07/17 06:19:41;;;;;;;5.00;2.10;;;;;;;20.57;49.56;99813.44;5095458;28;20055;-78
2022/07/17 06:22:08;;;;;;;6.65;2.10;;;;;;;20.16;50.57;99829.69;5089945;28;20052;-78
2022/07/17 06:24:35;;;;;;;4.18;2.05;;;;;;;20.73;50.20;99823.84;5099357;28;20055;-78
2022/07/17 06:27:01;;;;;;;3.85;2.13;;;;;;;20.81;49.49;99833.72;5095516;28;20134;-78
2022/07/17 06:29:28;;;;;;;4.32;2.30;;;;;;;20.64;49.18;99837.13;5076435;28;20062;-78
2022/07/17 06:31:56;;;;;;;2.10;1.73;;;;;;;20.99;48.80;99819.81;5093323;28;20048;-78
2022/07/17 06:34:22;;;;;;;6.53;2.10;;;;;;;21.39;47.44;99835.75;5096928;28;20062;-78
2022/07/17 06:36:49;;;;;;;5.85;1.90;;;;;;;21.89;46.42;99828.88;5090802;28;20056;-78
2022/07/17 06:39:15;;;;;;;4.38;1.83;;;;;;;21.56;46.73;99838.66;5096897;28;20054;-78
2022/07/17 06:41:42;;;;;;;4.30;1.98;;;;;;;21.77;46.50;99844.66;5085740;28;20052;-78
2022/07/17 06:44:09;;;;;;;2.42;1.73;;;;;;;21.25;46.85;99822.38;5092669;28;20482;-78
2022/07/17 06:46:35;;;;;;;5.85;1.80;;;;;;;21.84;46.19;99834.28;5089657;28;20070;-78
2022/07/17 06:49:03;;;;;;;4.88;1.88;;;;;;;22.01;46.48;99839.94;5089883;28;20055;-78
2022/07/17 06:51:30;;;;;;;2.22;1.73;;;;;;;21.94;45.76;99835.63;5087496;28;20041;-78
2022/07/17 06:53:59;;;;;;;2.97;1.92;;;;;;;21.91;45.94;99835.00;5096542;28;20279;-78
2022/07/17 06:56:26;;;;;;;4.05;1.80;;;;;;;22.47;45.05;99822.59;5091619;28;20063;-79
2022/07/17 06:58:52;;;;;;;3.80;1.60;;;;;;;22.66;43.21;99840.69;5097097;28;20517;-78
2022/07/17 07:01:19;;;;;;;2.55;1.30;;;;;;;22.40;44.02;99836.56;5091608;28;20126;-78
2022/07/17 07:03:45;;;;;;;4.53;1.52;;;;;;;22.66;42.22;99842.63;5091596;28;20048;-78
2022/07/17 07:06:14;;;;;;;2.08;1.50;;;;;;;22.96;41.29;99851.50;5092400;28;20044;-78
2022/07/17 07:08:40;;;;;;;3.40;1.52;;;;;;;22.99;41.07;99830.75;5088837;28;20123;-77
2022/07/17 07:11:07;;;;;;;1.30;1.20;;;;;;;23.18;40.73;99847.19;5091817;28;20135;-77
2022/07/17 07:13:34;;;;;;;3.17;1.25;;;;;;;23.67;39.26;99842.69;5088090;28;20405;-77
2022/07/17 07:16:02;;;;;;;3.50;1.52;;;;;;;23.57;39.18;99848.06;5089255;28;20044;-77
2022/07/17 07:18:28;;;;;;;2.70;1.50;;;;;;;23.66;39.20;99826.28;5071854;28;20074;-77
2022/07/17 07:20:55;;;;;;;4.22;1.20;;;;;;;23.59;39.63;99831.19;5091045;28;20040;-77
2022/07/17 07:23:23;;;;;;;4.88;1.50;;;;;;;23.78;39.36;99837.28;5097205;28;20501;-78
2022/07/17 07:25:50;;;;;;;13.32;3.75;;;;;;;23.65;40.05;99832.94;5094649;28;20062;-78
2022/07/17 07:28:16;;;;;;;3.03;1.40;;;;;;;24.03;39.33;99845.16;5088366;28;20040;-78
2022/07/17 07:30:52;;;;;;;2.90;1.45;;;;;;;24.35;38.49;99852.78;5084436;27;20051;-77
2022/07/17 07:33:18;;;;;;;4.95;1.63;;;;;;;23.92;38.94;99846.97;5092620;28;20398;-77
2022/07/17 07:35:45;;;;;;;1.92;1.30;;;;;;;23.94;39.47;99844.78;5092972;28;20147;-77
2022/07/17 07:38:12;;;;;;;2.78;1.58;;;;;;;24.19;38.89;99835.06;5090758;28;20558;-77
2022/07/17 07:40:40;;;;;;;2.47;1.42;;;;;;;24.32;37.99;99820.78;5089459;28;20131;-77
2022/07/17 07:43:06;;;;;;;7.95;1.50;;;;;;;24.17;38.60;99827.00;5090883;28;20039;-77
2022/07/17 07:45:33;;;;;;;5.80;1.55;;;;;;;24.07;39.01;99849.09;5090714;28;20048;-77
2022/07/17 07:47:59;;;;;;;2.22;1.40;;;;;;;24.40;38.82;99850.06;5085643;28;20048;-78
2022/07/17 07:50:28;;;;;;;2.58;1.30;;;;;;;24.52;38.66;99844.34;5092735;27;20521;-78
2022/07/17 07:52:54;;;;;;;5.80;1.27;;;;;;;24.94;37.81;99842.88;5092591;28;20052;-77
2022/07/17 07:55:23;;;;;;;2.47;1.10;;;;;;;24.95;36.58;99830.66;5091907;28;20062;-78
2022/07/17 07:58:01;;;;;;;1.73;1.20;;;;;;;24.69;36.88;99820.13;5098337;28;20138;-77
2022/07/17 08:00:28;;;;;;;6.63;1.17;;;;;;;24.52;37.25;99833.25;5088049;28;20047;-78
2022/07/17 08:02:54;;;;;;;3.97;1.52;;;;;;;24.33;36.94;99836.38;5087059;28;20051;-77
2022/07/17 08:05:21;;;;;;;2.40;1.30;;;;;;;24.46;37.12;99840.66;5087514;28;20161;-77
2022/07/17 08:07:47;;;;;;;2.58;1.20;;;;;;;24.39;36.82;99815.88;5089934;28;20135;-78
2022/07/17 08:10:14;;;;;;;1.48;1.15;;;;;;;24.79;35.59;99833.28;5090603;28;20040;-77
2022/07/17 08:12:40;;;;;;;4.28;1.15;;;;;;;24.20;36.07;99840.38;5096075;28;20048;-77
2022/07/17 08:15:10;;;;;;;4.35;1.10;;;;;;;24.59;36.32;99841.41;5090814;28;20395;-78
2022/07/17 08:17:36;;;;;;;5.67;1.40;;;;;;;24.54;36.88;99836.63;5093333;28;20582;-78
2022/07/17 08:20:03;;;;;;;3.28;1.50;;;;;;;24.37;36.00;99836.69;5094822;28;20305;-77
2022/07/17 08:22:30;;;;;;;4.75;1.48;;;;;;;24.36;36.02;99840.59;5088273;28;20046;-77
2022/07/17 08:24:56;;;;;;;2.10;0.95;;;;;;;24.60;36.23;99841.16;5093388;28;20043;-78
2022/07/17 08:27:23;;;;;;;2.50;1.40;;;;;;;24.67;35.88;99836.22;5096147;28;20050;-78
2022/07/17 08:29:49;;;;;;;2.45;1.27;;;;;;;25.00;35.46;99831.53;5088675;28;20044;-78
2022/07/17 08:32:17;;;;;;;1.10;1.00;;;;;;;24.79;35.29;99835.22;5086721;28;20044;-78
2022/07/17 08:34:44;;;;;;;5.28;1.35;;;;;;;24.93;34.98;99808.69;5088110;28;20059;-78
2022/07/17 08:37:18;;;;;;;1.10;1.00;;;;;;;25.04;34.63;99820.72;5087474;28;20044;-79
2022/07/17 08:39:51;;;;;;;3.22;1.38;;;;;;;24.92;34.83;99829.25;5087374;28;20519;-79
2022/07/17 08:42:21;;;;;;;1.67;1.30;;;;;;;25.36;33.84;99831.84;5090316;28;20050;-79
2022/07/17 08:44:57;;;;;;;3.13;1.15;;;;;;;25.38;34.10;99817.69;5089520;28;20090;-79
2022/07/17 08:47:27;;;;;;;4.05;1.30;;;;;;;25.69;33.79;99831.81;5084478;28;20056;-79
2022/07/17 08:49:54;;;;;;;2.28;1.23;;;;;;;25.42;33.44;99841.91;5085775;28;20044;-76
2022/07/17 08:52:23;;;;;;;1.73;1.15;;;;;;;25.39;33.98;99825.75;5094599;28;20055;-78
2022/07/17 08:54:50;;;;;;;1.20;1.08;;;;;;;25.60;33.15;99831.47;5091620;28;20057;-78
2022/07/17 08:57:17;;;;;;;2.22;1.40;;;;;;;25.40;32.48;99838.56;5096718;28;20140;-77
2022/07/17 08:59:44;;;;;;;2.05;1.27;;;;;;;25.44;33.45;99836.94;5086374;28;20044;-78
2022/07/17 09:02:11;;;;;;;1.70;1.20;;;;;;;25.85;33.34;99835.50;5087843;28;20113;-79
2022/07/17 09:04:41;;;;;;;3.08;1.17;;;;;;;26.00;33.03;99837.56;5107446;28;20358;-79
2022/07/17 09:07:08;;;;;;;2.00;1.20;;;;;;;25.75;32.34;99839.91;5108724;28;20075;-79
2022/07/17 09:09:35;;;;;;;2.35;1.13;;;;;;;25.82;33.36;99841.63;5106395;28;20130;-79
2022/07/17 09:12:02;;;;;;;3.90;1.10;;;;;;;26.03;33.63;99829.53;5110642;27;20043;-79
2022/07/17 09:14:38;;;;;;;3.13;1.23;;;;;;;26.02;32.42;99825.06;5106427;28;20070;-79
2022/07/17 09:17:06;;;;;;;1.10;1.00;;;;;;;26.01;32.50;99831.72;5105505;28;20059;-79
2022/07/17 09:19:35;;;;;;;3.28;1.33;;;;;;;25.89;32.76;99820.78;5110348;27;20413;-77
2022/07/17 09:22:07;;;;;;;2.58;1.02;;;;;;;25.73;32.73;99822.66;5107743;28;20487;-78
2022/07/17 09:24:46;;;;;;;5.75;1.15;;;;;;;25.66;32.86;99810.09;5106637;28;20078;-79
2022/07/17 09:27:17;;;;;;;5.93;1.13;;;;;;;25.92;32.22;99833.31;5106342;28;20056;-79
2022/07/17 09:29:53;;;;;;;2.97;1.42;;;;;;;26.28;32.15;99823.19;5108956;28;20495;-79
2022/07/17 09:32:20;;;;;;;2.75;1.15;;;;;;;26.30;32.95;99823.78;5108636;28;20054;-79
2022/07/17 09:34:46;;;;;;;5.15;1.48;;;;;;;26.09;31.90;99810.88;5116680;27;20047;-79
2022/07/17 09:37:15;;;;;;;3.00;1.65;;;;;;;26.21;32.53;99814.28;5108572;28;20043;-78
2022/07/17 09:39:43;;;;;;;2.90;1.50;;;;;;;26.38;32.37;99794.53;5109728;28;20044;-78
2022/07/17 09:42:10;;;;;;;4.30;1.13;;;;;;;26.85;31.25;99820.59;5107768;28;20051;-80
2022/07/17 09:44:38;;;;;;;2.65;0.90;;;;;;;26.63;31.51;99798.47;5112991;28;20044;-79
2022/07/17 09:47:04;;;;;;;2.53;1.08;;;;;;;26.76;31.15;99797.97;5110620;28;20914;-78
2022/07/17 09:49:32;;;;;;;3.78;1.13;;;;;;;26.86;30.71;99802.75;5117243;28;20062;-80
2022/07/17 09:52:01;;;;;;;1.83;0.90;;;;;;;26.67;31.17;99799.66;5110694;28;20079;-79
2022/07/17 09:54:30;;;;;;;2.88;1.08;;;;;;;26.46;31.39;99809.88;5108920;28;20135;-79
2022/07/17 09:56:59;;;;;;;1.93;1.20;;;;;;;26.65;31.62;99811.03;5114927;28;20048;-79
2022/07/17 09:59:29;;;;;;;1.58;1.15;;;;;;;26.72;30.51;99808.00;5110817;28;20396;-80
2022/07/17 10:01:56;;;;;;;2.47;1.00;;;;;;;26.93;30.75;99802.47;5109972;28;20079;-79
2022/07/17 10:04:23;;;;;;;2.08;1.10;;;;;;;27.08;30.54;99801.63;5112523;28;20054;-79
2022/07/17 10:06:50;;;;;;;1.10;1.00;;;;;;;27.17;31.01;99799.94;5112400;28;20109;-79
2022/07/17 10:09:18;;;;;;;1.98;1.00;;;;;;;26.88;29.78;99794.09;5114240;28;20134;-78
2022/07/17 10:11:49;;;;;;;3.97;1.25;;;;;;;27.19;30.33;99801.34;5117988;27;20035;-79
2022/07/17 10:14:19;;;;;;;1.77;1.25;;;;;;;27.25;30.14;99813.38;5114860;27;20352;-79
2022/07/17 10:16:46;;;;;;;3.03;1.27;;;;;;;27.26;29.93;99809.44;5099778;28;20071;-78
2022/07/17 10:19:18;;;;;;;3.35;1.15;;;;;;;27.19;29.46;99815.31;5113839;28;20079;-78
2022/07/17 10:21:57;;;;;;;2.42;1.30;;;;;;;27.23;29.15;99784.06;5093793;28;20048;-78
2022/07/17 10:24:24;;;;;;;4.07;0.93;;;;;;;26.97;29.53;99804.41;5093063;28;20145;-78
2022/07/17 10:26:52;;;;;;;1.30;1.20;;;;;;;27.34;28.87;99794.97;5118438;27;20086;-78
2022/07/17 10:29:31;;;;;;;1.13;1.02;;;;;;;27.52;28.62;99793.53;5112150;28;20512;-78
2022/07/17 10:31:59;;;;;;;6.10;1.00;;;;;;;27.33;29.69;99790.47;5113656;27;20051;-79
2022/07/17 10:34:40;;;;;;;1.27;1.05;;;;;;;27.50;29.22;99778.16;5110293;27;20525;-78
2022/07/17 10:37:15;;;;;;;4.65;1.30;;;;;;;27.90;28.91;99784.75;5120677;27;20047;-79
2022/07/17 10:39:54;;;;;;;4.45;1.25;;;;;;;27.76;29.08;99773.34;5112735;27;20047;-79
2022/07/17 10:42:53;;;;;;;2.58;1.13;;;;;;;28.16;27.86;99779.91;5107876;27;20063;-78
2022/07/17 10:45:24;;;;;;;1.33;1.23;;;;;;;28.21;27.49;99784.66;5107389;28;20407;-78
2022/07/17 10:47:54;;;;;;;1.33;1.00;;;;;;;27.96;27.37;99769.69;5117165;27;20051;-78
2022/07/17 10:50:24;;;;;;;1.02;0.82;;;;;;;28.39;27.25;99769.19;5110768;27;20075;-78
2022/07/17 10:52:58;;;;;;;3.45;0.90;;;;;;;28.56;27.28;99775.22;5113070;27;20101;-78
2022/07/17 10:55:25;;;;;;;1.88;1.20;;;;;;;28.46;26.67;99774.47;5108215;27;20509;-78
2022/07/17 10:57:51;;;;;;;2.35;1.25;;;;;;;28.22;27.19;99748.03;5110807;28;20055;-78
2022/07/17 11:00:18;;;;;;;2.70;1.13;;;;;;;28.46;26.66;99771.66;5110486;28;20043;-78
2022/07/17 11:02:46;;;;;;;2.75;0.95;;;;;;;28.53;26.87;99759.03;5109824;28;20078;-78
2022/07/17 11:05:15;;;;;;;2.58;1.60;;;;;;;28.88;26.27;99761.88;5113078;27;20053;-78
2022/07/17 11:07:56;;;;;;;2.80;1.23;;;;;;;28.59;26.98;99766.28;5110110;27;20047;-79
2022/07/17 11:10:26;;;;;;;3.35;1.23;;;;;;;29.01;25.91;99765.97;5108034;27;20683;-78
2022/07/17 11:12:52;;;;;;;3.03;1.40;;;;;;;29.28;25.90;99757.06;5108985;28;20059;-79
2022/07/17 11:15:19;;;;;;;1.33;0.82;;;;;;;29.71;26.35;99757.16;5110835;27;20079;-77
2022/07/17 11:17:48;;;;;;;2.80;0.93;;;;;;;29.75;26.65;99760.19;5111763;27;20077;-78
2022/07/17 11:20:16;;;;;;;1.30;0.88;;;;;;;29.72;25.88;99755.19;5109854;27;20047;-78
2022/07/17 11:22:43;;;;;;;1.80;0.93;;;;;;;29.48;24.30;99742.84;5111921;27;20442;-77
2022/07/17 11:25:11;;;;;;;1.13;1.00;;;;;;;29.14;24.48;99737.28;5120765;27;20507;-77
2022/07/17 11:27:38;;;;;;;2.65;1.13;;;;;;;29.05;24.88;99737.09;5114865;27;20052;-77
2022/07/17 11:30:13;;;;;;;3.88;1.42;;;;;;;29.13;24.87;99738.41;5119121;27;20047;-79
2022/07/17 11:32:41;;;;;;;6.10;3.72;;;;;;;29.33;25.44;99743.03;5109683;28;20044;-78
2022/07/17 11:35:20;;;;;;;1.65;0.90;;;;;;;29.34;25.10;99735.44;5106709;28;20501;-78